Friday, November 24, 2017, 1:20 PM GMT
Back to Local

CWFQ, Frelighsburg

Location: , , Canada Lat: 45.05
Local Time: 1:20 PM GMT (13:20 GMT) Lon: -72.833
Time Zone: GMT Elev: 498 ft

Show me the last for .
Show Coded

Time T Td Feel RH Dir Speed Gust Alt SLP Vis Weather Sky Remarks
2017-11-24 13:00 31 28 28 86 170° 3 - - 29.90 0 None
2017-11-24 12:00 32 28 - 87 170° 2 - - 29.90 0 None
2017-11-24 11:00 31 29 - 90 210° 2 - - 29.89 0 None
2017-11-24 10:00 32 28 29 86 170° 3 - - 29.88 0 None
2017-11-24 09:00 32 28 29 86 180° 3 - - 29.88 0 None
2017-11-24 08:00 31 27 28 85 180° 3 - - 29.88 0 None
2017-11-24 07:00 31 25 25 77 180° 6 - - 29.87 0 None
2017-11-24 06:00 30 24 24 77 180° 6 - - 29.86 0 None
2017-11-24 05:00 30 21 25 69 190° 5 - - 29.88 0 None
2017-11-24 04:00 30 21 24 69 180° 6 - - 29.87 0 None
2017-11-24 03:00 29 22 23 73 180° 6 - - 29.88 0 None
2017-11-24 02:00 29 19 22 66 180° 7 - - 29.89 0 None
2017-11-24 01:00 28 18 21 65 180° 7 - - 29.90 0 None
2017-11-24 00:00 27 18 21 66 160° 6 - - 29.92 0 None
2017-11-23 23:00 27 18 20 70 170° 6 - - 29.93 0 None
2017-11-23 22:00 26 17 21 68 160° 5 - - 29.94 0 None
2017-11-23 21:00 26 16 21 63 170° 5 - - 29.94 0 None
2017-11-23 20:00 26 15 21 63 180° 5 - - 29.97 0 None
2017-11-23 19:00 25 15 19 64 180° 5 - - 29.98 0 None
2017-11-23 18:00 26 14 20 60 200° 5 - - 30.00 0 None
2017-11-23 17:00 22 15 16 72 230° 5 - - 30.03 0 None
2017-11-23 16:00 22 13 15 69 270° 5 - - 30.06 0 None
2017-11-23 15:00 19 13 11 76 240° 6 - - 30.09 0 None
2017-11-23 14:00 19 13 13 79 240° 3 - - 30.11 0 None

Support USWX by starting your Amazon purchase here.